sensor_id;sensor_type;location;lat;lon;timestamp;pressure;altitude;pressure_sealevel;temperature;humidity
73671;BME280;61968;48.178;11.566;2022-10-16T00:00:19;95812.00;;;14.19;49.85
73671;BME280;61968;48.178;11.566;2022-10-16T00:02:46;95813.81;;;14.14;50.02
73671;BME280;61968;48.178;11.566;2022-10-16T00:05:12;95808.56;;;14.19;49.77
73671;BME280;61968;48.178;11.566;2022-10-16T00:07:39;95813.25;;;14.12;50.18
73671;BME280;61968;48.178;11.566;2022-10-16T00:10:07;95818.53;;;14.07;50.08
73671;BME280;61968;48.178;11.566;2022-10-16T00:12:35;95817.47;;;14.08;50.04
73671;BME280;61968;48.178;11.566;2022-10-16T00:15:02;95821.72;;;14.09;49.96
73671;BME280;61968;48.178;11.566;2022-10-16T00:17:29;95820.94;;;14.08;50.02
73671;BME280;61968;48.178;11.566;2022-10-16T00:19:55;95818.03;;;14.10;49.79
73671;BME280;61968;48.178;11.566;2022-10-16T00:22:22;95817.25;;;14.09;49.85
73671;BME280;61968;48.178;11.566;2022-10-16T00:24:49;95810.06;;;14.10;49.92
73671;BME280;61968;48.178;11.566;2022-10-16T00:27:16;95803.13;;;14.09;49.75
73671;BME280;61968;48.178;11.566;2022-10-16T00:29:44;95808.19;;;14.10;49.52
73671;BME280;61968;48.178;11.566;2022-10-16T00:32:10;95820.41;;;14.06;49.66
73671;BME280;61968;48.178;11.566;2022-10-16T00:34:37;95820.06;;;14.02;49.91
73671;BME280;61968;48.178;11.566;2022-10-16T00:37:03;95817.97;;;14.04;49.88
73671;BME280;61968;48.178;11.566;2022-10-16T00:39:30;95812.09;;;14.02;49.70
73671;BME280;61968;48.178;11.566;2022-10-16T00:41:56;95809.13;;;13.99;49.91
73671;BME280;61968;48.178;11.566;2022-10-16T00:44:46;95813.84;;;13.92;50.12
73671;BME280;61968;48.178;11.566;2022-10-16T00:47:18;95812.56;;;13.94;50.05
73671;BME280;61968;48.178;11.566;2022-10-16T00:49:47;95818.91;;;13.93;50.06
73671;BME280;61968;48.178;11.566;2022-10-16T00:52:15;95818.63;;;13.90;50.04
73671;BME280;61968;48.178;11.566;2022-10-16T00:54:43;95817.25;;;13.87;50.13
73671;BME280;61968;48.178;11.566;2022-10-16T00:57:10;95820.47;;;13.89;49.83
73671;BME280;61968;48.178;11.566;2022-10-16T00:59:39;95817.53;;;13.91;49.76
73671;BME280;61968;48.178;11.566;2022-10-16T01:02:09;95818.13;;;13.93;49.89
73671;BME280;61968;48.178;11.566;2022-10-16T01:04:39;95819.09;;;13.87;50.05
73671;BME280;61968;48.178;11.566;2022-10-16T01:07:12;95827.38;;;13.90;50.07
73671;BME280;61968;48.178;11.566;2022-10-16T01:09:48;95827.66;;;13.89;49.93
73671;BME280;61968;48.178;11.566;2022-10-16T01:12:22;95828.16;;;13.86;49.92
73671;BME280;61968;48.178;11.566;2022-10-16T01:14:58;95838.28;;;13.89;49.90
73671;BME280;61968;48.178;11.566;2022-10-16T01:17:30;95840.38;;;13.87;49.99
73671;BME280;61968;48.178;11.566;2022-10-16T01:20:08;95843.28;;;13.85;49.98
73671;BME280;61968;48.178;11.566;2022-10-16T01:22:47;95846.44;;;13.82;50.01
73671;BME280;61968;48.178;11.566;2022-10-16T01:25:20;95841.66;;;13.84;50.02
73671;BME280;61968;48.178;11.566;2022-10-16T01:27:49;95833.19;;;13.87;49.86
73671;BME280;61968;48.178;11.566;2022-10-16T01:30:18;95838.13;;;13.78;50.01
73671;BME280;61968;48.178;11.566;2022-10-16T01:32:51;95839.47;;;13.76;49.99
73671;BME280;61968;48.178;11.566;2022-10-16T01:35:22;95842.84;;;13.71;50.14
73671;BME280;61968;48.178;11.566;2022-10-16T01:37:53;95836.25;;;13.74;50.09
73671;BME280;61968;48.178;11.566;2022-10-16T01:40:23;95831.72;;;13.74;49.85
73671;BME280;61968;48.178;11.566;2022-10-16T01:42:54;95829.00;;;13.69;50.22
73671;BME280;61968;48.178;11.566;2022-10-16T01:45:22;95822.97;;;13.74;49.99
73671;BME280;61968;48.178;11.566;2022-10-16T01:47:51;95814.50;;;13.77;49.89
73671;BME280;61968;48.178;11.566;2022-10-16T01:50:20;95821.97;;;13.80;49.73
73671;BME280;61968;48.178;11.566;2022-10-16T01:52:50;95822.19;;;13.78;49.91
73671;BME280;61968;48.178;11.566;2022-10-16T01:55:22;95827.00;;;13.81;49.43
73671;BME280;61968;48.178;11.566;2022-10-16T01:57:51;95824.06;;;13.78;49.78
73671;BME280;61968;48.178;11.566;2022-10-16T02:00:20;95823.53;;;13.76;49.88
73671;BME280;61968;48.178;11.566;2022-10-16T02:02:49;95824.63;;;13.80;49.60
73671;BME280;61968;48.178;11.566;2022-10-16T02:05:23;95819.31;;;13.80;49.75
73671;BME280;61968;48.178;11.566;2022-10-16T02:07:51;95809.75;;;13.79;49.74
73671;BME280;61968;48.178;11.566;2022-10-16T02:10:18;95810.78;;;13.78;49.86
73671;BME280;61968;48.178;11.566;2022-10-16T02:12:48;95809.75;;;13.79;49.77
73671;BME280;61968;48.178;11.566;2022-10-16T02:15:18;95812.06;;;13.75;49.77
73671;BME280;61968;48.178;11.566;2022-10-16T02:17:45;95818.72;;;13.73;49.84
73671;BME280;61968;48.178;11.566;2022-10-16T02:20:11;95817.63;;;13.74;49.64
73671;BME280;61968;48.178;11.566;2022-10-16T02:22:40;95813.13;;;13.74;49.54
73671;BME280;61968;48.178;11.566;2022-10-16T02:25:10;95814.69;;;13.70;49.68
73671;BME280;61968;48.178;11.566;2022-10-16T02:27:41;95819.19;;;13.70;49.55
73671;BME280;61968;48.178;11.566;2022-10-16T02:30:14;95818.94;;;13.71;49.67
73671;BME280;61968;48.178;11.566;2022-10-16T02:32:46;95819.69;;;13.67;49.70
73671;BME280;61968;48.178;11.566;2022-10-16T02:35:15;95826.00;;;13.61;49.71
73671;BME280;61968;48.178;11.566;2022-10-16T02:37:44;95828.41;;;13.62;49.53
73671;BME280;61968;48.178;11.566;2022-10-16T02:40:12;95825.50;;;13.64;49.46
73671;BME280;61968;48.178;11.566;2022-10-16T02:42:39;95834.81;;;13.66;49.38
73671;BME280;61968;48.178;11.566;2022-10-16T02:45:08;95833.97;;;13.61;49.23
73671;BME280;61968;48.178;11.566;2022-10-16T02:47:35;95837.97;;;13.63;49.36
73671;BME280;61968;48.178;11.566;2022-10-16T02:50:03;95834.00;;;13.66;49.29
73671;BME280;61968;48.178;11.566;2022-10-16T02:52:30;95833.78;;;13.67;49.30
73671;BME280;61968;48.178;11.566;2022-10-16T02:54:57;95832.66;;;13.63;49.29
73671;BME280;61968;48.178;11.566;2022-10-16T02:57:23;95845.88;;;13.58;49.07
73671;BME280;61968;48.178;11.566;2022-10-16T02:59:50;95848.22;;;13.54;49.46
73671;BME280;61968;48.178;11.566;2022-10-16T03:02:16;95850.31;;;13.52;49.29
73671;BME280;61968;48.178;11.566;2022-10-16T03:04:43;95841.88;;;13.55;49.12
73671;BME280;61968;48.178;11.566;2022-10-16T03:07:11;95830.19;;;13.56;48.98
73671;BME280;61968;48.178;11.566;2022-10-16T03:09:37;95830.19;;;13.56;49.23
73671;BME280;61968;48.178;11.566;2022-10-16T03:12:04;95829.94;;;13.58;49.05
73671;BME280;61968;48.178;11.566;2022-10-16T03:14:31;95832.53;;;13.53;48.94
73671;BME280;61968;48.178;11.566;2022-10-16T03:16:58;95821.09;;;13.52;49.13
73671;BME280;61968;48.178;11.566;2022-10-16T03:19:24;95829.06;;;13.52;49.17
73671;BME280;61968;48.178;11.566;2022-10-16T03:21:51;95829.53;;;13.49;49.19
73671;BME280;61968;48.178;11.566;2022-10-16T03:24:18;95831.94;;;13.51;49.16
73671;BME280;61968;48.178;11.566;2022-10-16T03:26:45;95835.88;;;13.48;49.14
73671;BME280;61968;48.178;11.566;2022-10-16T03:29:11;95840.66;;;13.46;49.13
73671;BME280;61968;48.178;11.566;2022-10-16T03:31:38;95836.44;;;13.50;49.07
73671;BME280;61968;48.178;11.566;2022-10-16T03:34:04;95832.28;;;13.54;48.92
73671;BME280;61968;48.178;11.566;2022-10-16T03:36:31;95834.38;;;13.52;49.04
73671;BME280;61968;48.178;11.566;2022-10-16T03:38:57;95838.03;;;13.51;49.09
73671;BME280;61968;48.178;11.566;2022-10-16T03:41:25;95836.44;;;13.50;48.95
73671;BME280;61968;48.178;11.566;2022-10-16T03:43:52;95843.84;;;13.48;49.25
73671;BME280;61968;48.178;11.566;2022-10-16T03:46:18;95844.03;;;13.42;49.02
73671;BME280;61968;48.178;11.566;2022-10-16T03:48:45;95850.88;;;13.38;49.24
73671;BME280;61968;48.178;11.566;2022-10-16T03:51:12;95859.16;;;13.41;49.14
73671;BME280;61968;48.178;11.566;2022-10-16T03:53:38;95851.81;;;13.48;48.85
73671;BME280;61968;48.178;11.566;2022-10-16T03:56:05;95851.91;;;13.53;48.83
73671;BME280;61968;48.178;11.566;2022-10-16T03:58:33;95851.59;;;13.50;48.91
73671;BME280;61968;48.178;11.566;2022-10-16T04:01:00;95845.09;;;13.57;48.63
73671;BME280;61968;48.178;11.566;2022-10-16T04:03:26;95846.91;;;13.57;48.74
73671;BME280;61968;48.178;11.566;2022-10-16T04:05:53;95852.66;;;13.49;49.09
73671;BME280;61968;48.178;11.566;2022-10-16T04:08:20;95853.19;;;13.51;48.98
73671;BME280;61968;48.178;11.566;2022-10-16T04:10:47;95852.50;;;13.55;48.89
73671;BME280;61968;48.178;11.566;2022-10-16T04:13:14;95851.69;;;13.55;49.07
73671;BME280;61968;48.178;11.566;2022-10-16T04:15:44;95843.94;;;13.53;49.22
73671;BME280;61968;48.178;11.566;2022-10-16T04:18:10;95855.63;;;13.52;48.92
73671;BME280;61968;48.178;11.566;2022-10-16T04:20:37;95850.88;;;13.54;49.24
73671;BME280;61968;48.178;11.566;2022-10-16T04:23:03;95842.91;;;13.54;49.15
73671;BME280;61968;48.178;11.566;2022-10-16T04:25:30;95839.69;;;13.52;49.00
73671;BME280;61968;48.178;11.566;2022-10-16T04:27:57;95850.41;;;13.57;49.10
73671;BME280;61968;48.178;11.566;2022-10-16T04:30:23;95852.56;;;13.61;48.87
73671;BME280;61968;48.178;11.566;2022-10-16T04:32:51;95845.88;;;13.58;48.87
73671;BME280;61968;48.178;11.566;2022-10-16T04:35:19;95849.84;;;13.55;48.67
73671;BME280;61968;48.178;11.566;2022-10-16T04:37:46;95849.53;;;13.52;48.71
73671;BME280;61968;48.178;11.566;2022-10-16T04:40:13;95852.19;;;13.52;48.59
73671;BME280;61968;48.178;11.566;2022-10-16T04:42:40;95857.63;;;13.45;48.48
73671;BME280;61968;48.178;11.566;2022-10-16T04:45:07;95856.91;;;13.50;48.45
73671;BME280;61968;48.178;11.566;2022-10-16T04:47:34;95857.25;;;13.53;48.71
73671;BME280;61968;48.178;11.566;2022-10-16T04:50:02;95864.00;;;13.61;48.37
73671;BME280;61968;48.178;11.566;2022-10-16T04:52:29;95854.09;;;13.56;48.34
73671;BME280;61968;48.178;11.566;2022-10-16T04:54:56;95851.75;;;13.60;48.33
73671;BME280;61968;48.178;11.566;2022-10-16T04:57:26;95852.56;;;13.61;48.20
73671;BME280;61968;48.178;11.566;2022-10-16T04:59:53;95847.56;;;13.64;48.30
73671;BME280;61968;48.178;11.566;2022-10-16T05:02:19;95842.06;;;13.71;47.95
73671;BME280;61968;48.178;11.566;2022-10-16T05:04:46;95835.56;;;13.62;47.99
73671;BME280;61968;48.178;11.566;2022-10-16T05:07:14;95836.94;;;13.64;47.91
73671;BME280;61968;48.178;11.566;2022-10-16T05:09:40;95849.94;;;13.66;47.85
73671;BME280;61968;48.178;11.566;2022-10-16T05:12:07;95861.50;;;13.54;47.90
73671;BME280;61968;48.178;11.566;2022-10-16T05:14:33;95856.63;;;13.51;48.13
73671;BME280;61968;48.178;11.566;2022-10-16T05:17:00;95859.66;;;13.55;48.17
73671;BME280;61968;48.178;11.566;2022-10-16T05:19:26;95855.72;;;13.57;48.39
73671;BME280;61968;48.178;11.566;2022-10-16T05:21:53;95848.06;;;13.61;48.18
73671;BME280;61968;48.178;11.566;2022-10-16T05:24:21;95847.47;;;13.59;48.15
73671;BME280;61968;48.178;11.566;2022-10-16T05:26:48;95843.53;;;13.62;48.47
73671;BME280;61968;48.178;11.566;2022-10-16T05:29:14;95850.72;;;13.61;48.49
73671;BME280;61968;48.178;11.566;2022-10-16T05:31:41;95873.25;;;13.58;48.43
73671;BME280;61968;48.178;11.566;2022-10-16T05:34:07;95862.69;;;13.64;48.06
73671;BME280;61968;48.178;11.566;2022-10-16T05:36:34;95867.44;;;13.62;48.06
73671;BME280;61968;48.178;11.566;2022-10-16T05:39:01;95865.03;;;13.60;48.49
73671;BME280;61968;48.178;11.566;2022-10-16T05:41:28;95869.78;;;13.58;48.78
73671;BME280;61968;48.178;11.566;2022-10-16T05:43:55;95872.94;;;13.55;48.53
73671;BME280;61968;48.178;11.566;2022-10-16T05:46:21;95878.00;;;13.56;48.63
73671;BME280;61968;48.178;11.566;2022-10-16T05:48:48;95882.03;;;13.59;48.70
73671;BME280;61968;48.178;11.566;2022-10-16T05:51:17;95877.00;;;13.63;48.59
73671;BME280;61968;48.178;11.566;2022-10-16T05:53:44;95881.28;;;13.64;48.66
73671;BME280;61968;48.178;11.566;2022-10-16T05:56:11;95891.34;;;13.62;48.78
73671;BME280;61968;48.178;11.566;2022-10-16T05:58:40;95890.25;;;13.57;48.54
73671;BME280;61968;48.178;11.566;2022-10-16T06:01:09;95895.88;;;13.61;48.45
73671;BME280;61968;48.178;11.566;2022-10-16T06:03:36;95888.78;;;13.67;48.53
73671;BME280;61968;48.178;11.566;2022-10-16T06:06:08;95885.56;;;13.65;48.37
73671;BME280;61968;48.178;11.566;2022-10-16T06:08:34;95890.78;;;13.59;48.74
73671;BME280;61968;48.178;11.566;2022-10-16T06:11:02;95892.16;;;13.62;48.55
73671;BME280;61968;48.178;11.566;2022-10-16T06:13:29;95895.88;;;13.61;48.52
73671;BME280;61968;48.178;11.566;2022-10-16T06:15:58;95898.75;;;13.59;48.61
73671;BME280;61968;48.178;11.566;2022-10-16T06:18:25;95896.91;;;13.60;48.54
73671;BME280;61968;48.178;11.566;2022-10-16T06:20:52;95903.03;;;13.61;48.38
73671;BME280;61968;48.178;11.566;2022-10-16T06:23:19;95900.13;;;13.62;48.54
73671;BME280;61968;48.178;11.566;2022-10-16T06:25:45;95903.84;;;13.61;48.54
73671;BME280;61968;48.178;11.566;2022-10-16T06:28:13;95915.28;;;13.62;48.29
73671;BME280;61968;48.178;11.566;2022-10-16T06:30:39;95910.19;;;13.60;48.39
73671;BME280;61968;48.178;11.566;2022-10-16T06:33:07;95920.81;;;13.60;48.48
73671;BME280;61968;48.178;11.566;2022-10-16T06:35:34;95921.88;;;13.59;48.39
73671;BME280;61968;48.178;11.566;2022-10-16T06:38:00;95920.81;;;13.60;48.21
73671;BME280;61968;48.178;11.566;2022-10-16T06:40:27;95915.50;;;13.60;48.44
73671;BME280;61968;48.178;11.566;2022-10-16T06:42:54;95921.06;;;13.58;48.58
73671;BME280;61968;48.178;11.566;2022-10-16T06:45:21;95923.72;;;13.58;48.78
73671;BME280;61968;48.178;11.566;2022-10-16T06:47:47;95930.09;;;13.57;48.89
73671;BME280;61968;48.178;11.566;2022-10-16T06:50:15;95942.81;;;13.55;48.80
73671;BME280;61968;48.178;11.566;2022-10-16T06:52:42;95945.47;;;13.55;48.80
73671;BME280;61968;48.178;11.566;2022-10-16T06:55:08;95943.63;;;13.56;48.89
73671;BME280;61968;48.178;11.566;2022-10-16T06:57:35;95950.28;;;13.58;48.70
73671;BME280;61968;48.178;11.566;2022-10-16T07:00:02;95946.03;;;13.57;49.01
73671;BME280;61968;48.178;11.566;2022-10-16T07:02:28;95951.34;;;13.57;48.78
73671;BME280;61968;48.178;11.566;2022-10-16T07:04:55;95950.91;;;13.66;49.25
73671;BME280;61968;48.178;11.566;2022-10-16T07:07:23;95958.97;;;13.71;48.92
73671;BME280;61968;48.178;11.566;2022-10-16T07:09:51;95959.63;;;13.61;48.75
73671;BME280;61968;48.178;11.566;2022-10-16T07:12:18;95965.25;;;13.65;48.73
73671;BME280;61968;48.178;11.566;2022-10-16T07:14:44;95965.81;;;13.67;48.88
73671;BME280;61968;48.178;11.566;2022-10-16T07:17:11;95967.75;;;13.71;48.88
73671;BME280;61968;48.178;11.566;2022-10-16T07:19:37;95963.97;;;13.67;48.89
73671;BME280;61968;48.178;11.566;2022-10-16T07:22:04;95967.16;;;13.69;48.58
73671;BME280;61968;48.178;11.566;2022-10-16T07:24:32;95959.47;;;13.68;48.71
73671;BME280;61968;48.178;11.566;2022-10-16T07:26:59;95963.97;;;13.67;49.05
73671;BME280;61968;48.178;11.566;2022-10-16T07:29:26;95971.06;;;13.62;49.11
73671;BME280;61968;48.178;11.566;2022-10-16T07:31:52;95970.56;;;13.65;49.05
73671;BME280;61968;48.178;11.566;2022-10-16T07:34:20;95981.78;;;13.67;48.89
73671;BME280;61968;48.178;11.566;2022-10-16T07:36:48;95981.19;;;13.65;48.58
73671;BME280;61968;48.178;11.566;2022-10-16T07:39:14;95985.47;;;13.66;48.65
73671;BME280;61968;48.178;11.566;2022-10-16T07:41:42;95987.63;;;13.69;48.39
73671;BME280;61968;48.178;11.566;2022-10-16T07:44:09;95991.97;;;13.75;48.38
73671;BME280;61968;48.178;11.566;2022-10-16T07:46:35;95999.22;;;13.79;48.38
73671;BME280;61968;48.178;11.566;2022-10-16T07:49:02;96005.34;;;13.80;48.20
73671;BME280;61968;48.178;11.566;2022-10-16T07:51:28;96000.66;;;13.87;48.14
73671;BME280;61968;48.178;11.566;2022-10-16T07:53:55;96003.38;;;13.92;48.10
73671;BME280;61968;48.178;11.566;2022-10-16T07:56:22;96001.03;;;13.96;48.18
73671;BME280;61968;48.178;11.566;2022-10-16T07:58:51;96013.34;;;14.02;48.02
73671;BME280;61968;48.178;11.566;2022-10-16T08:01:18;96005.19;;;14.09;47.74
73671;BME280;61968;48.178;11.566;2022-10-16T08:03:46;96016.47;;;14.16;47.39
73671;BME280;61968;48.178;11.566;2022-10-16T08:06:16;96007.25;;;14.23;47.43
73671;BME280;61968;48.178;11.566;2022-10-16T08:08:43;96015.44;;;14.39;47.19
73671;BME280;61968;48.178;11.566;2022-10-16T08:11:10;96011.00;;;14.44;46.91
73671;BME280;61968;48.178;11.566;2022-10-16T08:13:37;96013.16;;;14.47;46.81
73671;BME280;61968;48.178;11.566;2022-10-16T08:16:05;96013.81;;;14.60;46.75
73671;BME280;61968;48.178;11.566;2022-10-16T08:18:33;96015.75;;;14.64;46.35
73671;BME280;61968;48.178;11.566;2022-10-16T08:20:59;96022.25;;;14.73;46.28
73671;BME280;61968;48.178;11.566;2022-10-16T08:23:27;96014.84;;;14.81;46.08
73671;BME280;61968;48.178;11.566;2022-10-16T08:25:54;96017.31;;;14.87;45.92
73671;BME280;61968;48.178;11.566;2022-10-16T08:28:22;96023.78;;;14.91;45.81
73671;BME280;61968;48.178;11.566;2022-10-16T08:30:49;96020.81;;;14.88;44.96
73671;BME280;61968;48.178;11.566;2022-10-16T08:33:17;96025.63;;;14.91;45.17
73671;BME280;61968;48.178;11.566;2022-10-16T08:35:50;96023.63;;;15.03;45.22
73671;BME280;61968;48.178;11.566;2022-10-16T08:38:17;96024.03;;;15.17;44.19
73671;BME280;61968;48.178;11.566;2022-10-16T08:40:44;96033.19;;;15.26;44.00
73671;BME280;61968;48.178;11.566;2022-10-16T08:43:21;96031.97;;;15.12;43.85
73671;BME280;61968;48.178;11.566;2022-10-16T08:46:05;96039.78;;;15.18;43.73
73671;BME280;61968;48.178;11.566;2022-10-16T08:48:43;96036.13;;;15.30;43.67
73671;BME280;61968;48.178;11.566;2022-10-16T08:51:19;96042.81;;;15.32;43.52
73671;BME280;61968;48.178;11.566;2022-10-16T08:53:50;96041.66;;;15.50;43.18
73671;BME280;61968;48.178;11.566;2022-10-16T08:56:18;96048.91;;;15.60;42.51
73671;BME280;61968;48.178;11.566;2022-10-16T08:58:45;96043.69;;;15.75;42.43
73671;BME280;61968;48.178;11.566;2022-10-16T09:01:14;96051.00;;;15.85;42.66
73671;BME280;61968;48.178;11.566;2022-10-16T09:03:55;96050.31;;;16.00;41.72
73671;BME280;61968;48.178;11.566;2022-10-16T09:06:40;96053.00;;;16.00;41.52
73671;BME280;61968;48.178;11.566;2022-10-16T09:09:23;96061.44;;;15.92;41.67
73671;BME280;61968;48.178;11.566;2022-10-16T09:11:57;96055.72;;;15.78;41.69
73671;BME280;61968;48.178;11.566;2022-10-16T09:14:31;96052.66;;;15.96;41.82
73671;BME280;61968;48.178;11.566;2022-10-16T09:17:06;96047.16;;;16.08;41.52
73671;BME280;61968;48.178;11.566;2022-10-16T09:19:45;96053.59;;;16.17;40.78
73671;BME280;61968;48.178;11.566;2022-10-16T09:22:15;96052.53;;;16.13;40.54
73671;BME280;61968;48.178;11.566;2022-10-16T09:24:42;96051.22;;;16.16;40.61
73671;BME280;61968;48.178;11.566;2022-10-16T09:27:10;96054.16;;;16.19;40.05
73671;BME280;61968;48.178;11.566;2022-10-16T09:29:37;96061.47;;;16.39;40.23
73671;BME280;61968;48.178;11.566;2022-10-16T09:32:10;96055.41;;;16.59;39.96
73671;BME280;61968;48.178;11.566;2022-10-16T09:34:42;96062.44;;;16.70;39.24
73671;BME280;61968;48.178;11.566;2022-10-16T09:37:12;96057.66;;;16.72;39.24
73671;BME280;61968;48.178;11.566;2022-10-16T09:39:48;96060.59;;;16.76;39.24
73671;BME280;61968;48.178;11.566;2022-10-16T09:42:17;96062.47;;;16.75;38.71
73671;BME280;61968;48.178;11.566;2022-10-16T09:44:47;96064.53;;;16.63;39.15
73671;BME280;61968;48.178;11.566;2022-10-16T09:47:16;96064.09;;;16.82;39.68
73671;BME280;61968;48.178;11.566;2022-10-16T09:49:54;96064.38;;;16.95;39.11
73671;BME280;61968;48.178;11.566;2022-10-16T09:52:22;96077.97;;;16.84;38.39
73671;BME280;61968;48.178;11.566;2022-10-16T09:54:50;96080.16;;;16.97;38.77
73671;BME280;61968;48.178;11.566;2022-10-16T09:57:17;96079.41;;;17.12;37.45
73671;BME280;61968;48.178;11.566;2022-10-16T09:59:48;96086.63;;;17.16;38.08
73671;BME280;61968;48.178;11.566;2022-10-16T10:02:16;96085.03;;;17.15;38.38
73671;BME280;61968;48.178;11.566;2022-10-16T10:04:48;96080.78;;;17.25;37.93
73671;BME280;61968;48.178;11.566;2022-10-16T10:07:21;96075.69;;;17.28;37.33
73671;BME280;61968;48.178;11.566;2022-10-16T10:09:50;96075.19;;;17.36;38.10
73671;BME280;61968;48.178;11.566;2022-10-16T10:12:21;96076.00;;;17.47;38.18
73671;BME280;61968;48.178;11.566;2022-10-16T10:14:49;96072.84;;;17.60;38.31
73671;BME280;61968;48.178;11.566;2022-10-16T10:17:18;96073.91;;;17.70;37.47
73671;BME280;61968;48.178;11.566;2022-10-16T10:19:50;96068.00;;;17.67;37.58
73671;BME280;61968;48.178;11.566;2022-10-16T10:22:31;96067.75;;;17.64;38.34
73671;BME280;61968;48.178;11.566;2022-10-16T10:25:15;96077.09;;;17.56;37.92
73671;BME280;61968;48.178;11.566;2022-10-16T10:28:10;96076.03;;;17.78;38.65
73671;BME280;61968;48.178;11.566;2022-10-16T10:30:49;96080.56;;;17.77;36.72
73671;BME280;61968;48.178;11.566;2022-10-16T10:33:26;96076.56;;;17.75;36.28
73671;BME280;61968;48.178;11.566;2022-10-16T10:36:01;96080.56;;;17.82;35.89
73671;BME280;61968;48.178;11.566;2022-10-16T10:38:39;96077.63;;;17.89;35.65
73671;BME280;61968;48.178;11.566;2022-10-16T10:41:21;96076.56;;;17.95;34.94
73671;BME280;61968;48.178;11.566;2022-10-16T10:44:01;96070.38;;;18.05;34.63
73671;BME280;61968;48.178;11.566;2022-10-16T10:46:34;96077.63;;;18.09;34.34
73671;BME280;61968;48.178;11.566;2022-10-16T10:49:19;96066.63;;;18.11;34.60
73671;BME280;61968;48.178;11.566;2022-10-16T10:51:55;96069.56;;;18.35;35.32
73671;BME280;61968;48.178;11.566;2022-10-16T10:54:35;96075.94;;;18.49;34.69
73671;BME280;61968;48.178;11.566;2022-10-16T10:57:10;96066.81;;;18.55;33.73
73671;BME280;61968;48.178;11.566;2022-10-16T10:59:58;96071.91;;;18.57;34.07
73671;BME280;61968;48.178;11.566;2022-10-16T11:02:34;96074.66;;;18.26;33.48
73671;BME280;61968;48.178;11.566;2022-10-16T11:05:18;96077.56;;;18.40;33.79
73671;BME280;61968;48.178;11.566;2022-10-16T11:07:49;96070.59;;;18.44;33.89
73671;BME280;61968;48.178;11.566;2022-10-16T11:10:21;96064.63;;;18.68;34.45
73671;BME280;61968;48.178;11.566;2022-10-16T11:12:52;96069.66;;;18.90;33.07
73671;BME280;61968;48.178;11.566;2022-10-16T11:15:21;96061.81;;;19.03;33.06
73671;BME280;61968;48.178;11.566;2022-10-16T11:17:52;96066.06;;;19.10;33.38
73671;BME280;61968;48.178;11.566;2022-10-16T11:20:24;96071.13;;;19.16;32.60
73671;BME280;61968;48.178;11.566;2022-10-16T11:22:56;96071.75;;;19.03;31.56
73671;BME280;61968;48.178;11.566;2022-10-16T11:25:27;96064.47;;;19.09;31.41
73671;BME280;61968;48.178;11.566;2022-10-16T11:27:57;96063.31;;;19.20;31.04
73671;BME280;61968;48.178;11.566;2022-10-16T11:30:29;96068.59;;;19.35;31.06
73671;BME280;61968;48.178;11.566;2022-10-16T11:33:09;96064.31;;;19.34;30.94
73671;BME280;61968;48.178;11.566;2022-10-16T11:35:42;96064.75;;;19.07;30.28
73671;BME280;61968;48.178;11.566;2022-10-16T11:38:13;96063.31;;;19.20;30.42
73671;BME280;61968;48.178;11.566;2022-10-16T11:40:43;96071.13;;;19.11;30.42
73671;BME280;61968;48.178;11.566;2022-10-16T11:43:15;96064.56;;;19.38;30.52
73671;BME280;61968;48.178;11.566;2022-10-16T11:45:45;96056.94;;;19.60;30.35
73671;BME280;61968;48.178;11.566;2022-10-16T11:48:21;96064.00;;;19.80;30.32
73671;BME280;61968;48.178;11.566;2022-10-16T11:50:53;96061.16;;;19.95;30.41
73671;BME280;61968;48.178;11.566;2022-10-16T11:53:24;96058.75;;;19.99;28.42
73671;BME280;61968;48.178;11.566;2022-10-16T11:55:57;96066.72;;;19.75;28.84
73671;BME280;61968;48.178;11.566;2022-10-16T11:58:26;96062.50;;;19.98;29.02
73671;BME280;61968;48.178;11.566;2022-10-16T12:01:02;96062.66;;;20.12;29.15
73671;BME280;61968;48.178;11.566;2022-10-16T12:03:36;96067.09;;;19.92;28.50
73671;BME280;61968;48.178;11.566;2022-10-16T12:06:13;96059.97;;;20.12;29.15
73671;BME280;61968;48.178;11.566;2022-10-16T12:08:45;96064.03;;;20.38;29.38
73671;BME280;61968;48.178;11.566;2022-10-16T12:11:24;96057.50;;;20.21;29.25
73671;BME280;61968;48.178;11.566;2022-10-16T12:14:04;96062.81;;;20.50;29.14
73671;BME280;61968;48.178;11.566;2022-10-16T12:16:31;96055.59;;;20.69;29.17
73671;BME280;61968;48.178;11.566;2022-10-16T12:19:11;96062.22;;;20.77;28.78
73671;BME280;61968;48.178;11.566;2022-10-16T12:21:38;96065.44;;;20.79;28.80
73671;BME280;61968;48.178;11.566;2022-10-16T12:24:06;96059.44;;;20.63;29.95
73671;BME280;61968;48.178;11.566;2022-10-16T12:26:38;96049.13;;;20.94;29.05
73671;BME280;61968;48.178;11.566;2022-10-16T12:29:14;96056.13;;;21.14;29.29
73671;BME280;61968;48.178;11.566;2022-10-16T12:31:45;96052.41;;;21.10;28.96
73671;BME280;61968;48.178;11.566;2022-10-16T12:34:21;96051.59;;;21.28;28.95
73671;BME280;61968;48.178;11.566;2022-10-16T12:36:49;96059.03;;;21.37;29.49
73671;BME280;61968;48.178;11.566;2022-10-16T12:39:21;96061.88;;;21.45;29.14
73671;BME280;61968;48.178;11.566;2022-10-16T12:42:00;96056.13;;;21.52;28.26
73671;BME280;61968;48.178;11.566;2022-10-16T12:44:32;96052.19;;;21.63;29.68
73671;BME280;61968;48.178;11.566;2022-10-16T12:47:00;96055.50;;;21.74;30.10
73671;BME280;61968;48.178;11.566;2022-10-16T12:49:32;96057.84;;;21.81;29.38
73671;BME280;61968;48.178;11.566;2022-10-16T12:51:58;96048.31;;;21.69;27.66
73671;BME280;61968;48.178;11.566;2022-10-16T12:54:27;96053.59;;;21.74;29.01
73671;BME280;61968;48.178;11.566;2022-10-16T12:57:12;96050.31;;;21.77;27.99
73671;BME280;61968;48.178;11.566;2022-10-16T12:59:51;96042.69;;;21.98;27.75
73671;BME280;61968;48.178;11.566;2022-10-16T13:02:38;96045.66;;;22.02;28.33